createdAt,value
2023-05-21T00:00:12.034Z,81.27
2023-05-21T00:01:16.367Z,81.55
2023-05-21T00:02:19.863Z,81.04
2023-05-21T00:03:22.055Z,81.07
2023-05-21T00:04:25.521Z,80.45
2023-05-21T00:05:27.140Z,80.90
2023-05-21T00:06:29.175Z,80.98
2023-05-21T00:07:33.917Z,80.47
2023-05-21T00:08:35.686Z,79.98
2023-05-21T00:09:40.615Z,80.35
2023-05-21T00:10:42.195Z,80.65
2023-05-21T00:11:43.886Z,81.20
2023-05-21T00:12:45.550Z,81.54
2023-05-21T00:13:47.133Z,81.10
2023-05-21T00:14:48.726Z,81.54
2023-05-21T00:15:50.541Z,81.09
2023-05-21T00:16:52.515Z,81.58
2023-05-21T00:17:54.378Z,81.23
2023-05-21T00:18:58.163Z,81.26
2023-05-21T00:20:00.276Z,81.00
2023-05-21T00:21:02.221Z,79.48
2023-05-21T00:22:04.548Z,79.89
2023-05-21T00:23:06.188Z,79.98
2023-05-21T00:24:07.814Z,80.90
2023-05-21T00:25:11.316Z,80.96
2023-05-21T00:26:13.002Z,81.18
2023-05-21T00:27:14.554Z,82.00
2023-05-21T00:28:16.139Z,82.27
2023-05-21T00:29:18.285Z,82.22
2023-05-21T00:30:19.915Z,82.25
2023-05-21T00:31:21.877Z,82.70
2023-05-21T00:32:23.641Z,82.45
2023-05-21T00:33:26.753Z,81.82
2023-05-21T00:34:29.642Z,81.89
2023-05-21T00:35:31.337Z,81.33
2023-05-21T00:36:34.667Z,80.79
2023-05-21T00:37:36.295Z,80.73
2023-05-21T00:38:38.158Z,81.00
2023-05-21T00:39:39.726Z,81.58
2023-05-21T00:40:41.470Z,81.51
2023-05-21T00:41:46.760Z,81.18
2023-05-21T00:42:49.896Z,81.78
2023-05-21T00:43:53.077Z,81.52
2023-05-21T00:44:54.657Z,81.42
2023-05-21T00:45:56.701Z,81.19
2023-05-21T00:46:58.985Z,80.64
2023-05-21T00:48:01.340Z,81.38
2023-05-21T00:49:02.975Z,80.98
2023-05-21T00:50:06.426Z,81.56
2023-05-21T00:51:08.133Z,82.04
2023-05-21T00:52:09.956Z,82.21
2023-05-21T00:53:11.569Z,81.76
2023-05-21T00:54:13.208Z,81.95
2023-05-21T00:55:15.161Z,81.18
2023-05-21T00:56:17.175Z,81.32
2023-05-21T00:57:22.309Z,81.41
2023-05-21T00:58:23.973Z,80.65
2023-05-21T00:59:25.814Z,81.23
2023-05-21T01:00:28.200Z,80.86
2023-05-21T01:01:33.859Z,81.49
2023-05-21T01:02:37.299Z,82.12
2023-05-21T01:03:41.101Z,82.43
2023-05-21T01:04:43.114Z,83.79
2023-05-21T01:05:46.808Z,85.08
2023-05-21T01:06:48.403Z,85.71
2023-05-21T01:07:50.147Z,86.43
2023-05-21T01:08:51.910Z,86.84
2023-05-21T01:09:54.369Z,86.53
2023-05-21T01:10:57.598Z,87.28
2023-05-21T01:12:01.004Z,87.78
2023-05-21T01:13:02.742Z,88.54
2023-05-21T01:14:09.332Z,88.77
2023-05-21T01:15:11.560Z,88.74
2023-05-21T01:16:14.133Z,88.44
2023-05-21T01:17:16.444Z,87.72
2023-05-21T01:18:20.677Z,87.47
2023-05-21T01:19:24.383Z,86.91
2023-05-21T01:20:28.597Z,87.20
2023-05-21T01:21:30.938Z,87.89
2023-05-21T01:22:35.290Z,87.64
2023-05-21T01:23:37.198Z,87.77
2023-05-21T01:24:38.852Z,87.48
2023-05-21T01:25:42.322Z,87.90
2023-05-21T01:26:44.364Z,89.17
2023-05-21T01:27:46.141Z,89.38
2023-05-21T01:28:48.089Z,88.67
2023-05-21T01:29:49.711Z,88.40
2023-05-21T01:30:51.437Z,88.48
2023-05-21T01:32:20.430Z,89.46
2023-05-21T01:33:45.606Z,90.64
2023-05-21T01:34:47.309Z,91.94
2023-05-21T01:36:02.570Z,92.84
2023-05-21T01:37:22.890Z,93.10
2023-05-21T01:39:29.085Z,94.44
2023-05-21T01:40:48.632Z,94.31
2023-05-21T01:41:53.440Z,94.36
2023-05-21T01:42:55.916Z,95.56
2023-05-21T01:43:57.877Z,96.17
2023-05-21T01:45:01.394Z,96.45
2023-05-21T01:46:03.950Z,96.54
2023-05-21T01:47:06.469Z,96.55
2023-05-21T01:48:09.462Z,96.64
2023-05-21T01:49:11.758Z,96.68
2023-05-21T01:50:14.643Z,95.79
2023-05-21T01:51:16.995Z,95.49
2023-05-21T01:52:18.899Z,94.91
2023-05-21T01:53:21.122Z,94.89
2023-05-21T01:54:23.840Z,94.24
2023-05-21T01:55:25.473Z,93.53
2023-05-21T01:56:28.653Z,93.06
2023-05-21T01:57:30.447Z,92.28
2023-05-21T01:58:32.063Z,91.67
2023-05-21T01:59:34.521Z,91.30
2023-05-21T02:00:37.503Z,91.69
2023-05-21T02:01:39.212Z,91.29
2023-05-21T02:02:41.148Z,90.81
2023-05-21T02:03:43.004Z,90.04
2023-05-21T02:04:46.184Z,88.86
2023-05-21T02:05:47.851Z,88.17
2023-05-21T02:06:49.451Z,88.00
2023-05-21T02:07:52.204Z,87.73
2023-05-21T02:08:53.792Z,86.74
2023-05-21T02:09:55.339Z,87.55
2023-05-21T02:10:56.943Z,88.08
2023-05-21T02:11:58.629Z,88.58
2023-05-21T02:13:00.228Z,88.84
2023-05-21T02:14:01.890Z,89.33
2023-05-21T02:15:04.619Z,88.38
2023-05-21T02:16:10.203Z,87.82
2023-05-21T02:17:11.810Z,87.73
2023-05-21T02:18:16.728Z,87.41
2023-05-21T02:19:18.914Z,86.64
2023-05-21T02:20:22.687Z,86.22
2023-05-21T02:21:24.357Z,86.83
2023-05-21T02:22:25.945Z,88.08
2023-05-21T02:23:27.531Z,89.12
2023-05-21T02:24:29.276Z,89.57
2023-05-21T02:25:30.891Z,90.38
2023-05-21T02:26:32.425Z,91.04
2023-05-21T02:27:35.210Z,90.73
2023-05-21T02:28:38.490Z,90.50
2023-05-21T02:29:40.028Z,90.28
2023-05-21T02:30:41.613Z,90.13
2023-05-21T02:31:43.330Z,89.79
2023-05-21T02:32:45.176Z,88.74
2023-05-21T02:33:46.822Z,88.41
2023-05-21T02:34:48.395Z,88.62
2023-05-21T02:35:49.954Z,88.17
2023-05-21T02:36:54.793Z,87.20
2023-05-21T02:37:59.558Z,86.62
2023-05-21T02:39:01.792Z,86.58
2023-05-21T02:40:06.044Z,86.65
2023-05-21T02:41:07.651Z,86.07
2023-05-21T02:42:09.208Z,85.59
2023-05-21T02:43:10.916Z,85.79
2023-05-21T02:44:13.244Z,85.87
2023-05-21T02:45:14.827Z,85.43
2023-05-21T02:46:16.472Z,85.29
2023-05-21T02:47:19.846Z,85.50
2023-05-21T02:48:21.423Z,86.68
2023-05-21T02:49:22.989Z,87.57
2023-05-21T02:50:24.621Z,88.51
2023-05-21T02:51:26.216Z,88.98
2023-05-21T02:52:28.347Z,89.52
2023-05-21T02:53:30.018Z,89.57
2023-05-21T02:54:31.680Z,89.76
2023-05-21T02:55:33.405Z,89.26
2023-05-21T02:56:35.198Z,89.53
2023-05-21T02:57:36.803Z,89.48
2023-05-21T02:58:38.424Z,89.29
2023-05-21T02:59:40.006Z,88.61
2023-05-21T03:00:41.840Z,87.83
2023-05-21T03:01:45.241Z,87.46
2023-05-21T03:02:47.115Z,86.68
2023-05-21T03:03:48.835Z,87.07
2023-05-21T03:04:50.884Z,88.07
2023-05-21T03:05:53.115Z,87.65
2023-05-21T03:06:55.505Z,87.68
2023-05-21T03:07:57.378Z,87.86
2023-05-21T03:08:58.989Z,88.19
2023-05-21T03:10:00.652Z,88.37
2023-05-21T03:11:02.326Z,88.30
2023-05-21T03:12:04.117Z,88.80
2023-05-21T03:13:09.510Z,88.93
2023-05-21T03:14:12.007Z,88.67
2023-05-21T03:15:16.387Z,89.61
2023-05-21T03:16:18.154Z,89.86
2023-05-21T03:17:20.646Z,89.42
2023-05-21T03:18:23.142Z,89.47
2023-05-21T03:19:25.056Z,90.38
2023-05-21T03:20:28.046Z,90.62
2023-05-21T03:21:30.184Z,90.57
2023-05-21T03:22:31.753Z,89.90
2023-05-21T03:23:33.378Z,89.66
2023-05-21T03:24:35.342Z,89.65
2023-05-21T03:25:37.678Z,89.25
2023-05-21T03:26:39.390Z,89.77
2023-05-21T03:27:41.089Z,90.59
2023-05-21T03:28:42.644Z,91.95
2023-05-21T03:29:44.676Z,92.74
2023-05-21T03:30:46.825Z,92.85
2023-05-21T03:31:48.570Z,93.01
2023-05-21T03:32:51.442Z,92.81
2023-05-21T03:33:53.958Z,93.37
2023-05-21T03:34:55.798Z,93.26
2023-05-21T03:35:57.425Z,93.42
2023-05-21T03:36:59.011Z,92.53
2023-05-21T03:38:00.906Z,91.16
2023-05-21T03:39:04.880Z,92.02
2023-05-21T03:40:08.734Z,92.55
2023-05-21T03:41:11.070Z,93.38
2023-05-21T03:42:14.242Z,94.79
2023-05-21T03:43:15.834Z,94.70
2023-05-21T03:44:17.462Z,95.27
2023-05-21T03:45:19.116Z,93.98
2023-05-21T03:46:20.689Z,93.09
2023-05-21T03:47:22.287Z,92.43
2023-05-21T03:48:23.972Z,92.02
2023-05-21T03:49:26.182Z,91.77
2023-05-21T03:50:27.966Z,92.30
2023-05-21T03:51:30.828Z,92.93
2023-05-21T03:52:32.406Z,93.03
2023-05-21T03:53:34.303Z,92.50
2023-05-21T03:54:36.045Z,91.81
2023-05-21T03:55:37.765Z,92.12
2023-05-21T03:56:39.600Z,91.96
2023-05-21T03:57:41.339Z,92.19
2023-05-21T03:58:43.061Z,91.87
2023-05-21T03:59:45.297Z,91.39
2023-05-21T04:00:46.990Z,90.70
2023-05-21T04:01:48.589Z,91.15
2023-05-21T04:02:50.263Z,90.36
2023-05-21T04:03:52.137Z,89.75
2023-05-21T04:04:53.967Z,87.99
2023-05-21T04:05:56.419Z,88.36
2023-05-21T04:06:58.039Z,87.55
2023-05-21T04:08:00.212Z,87.14
2023-05-21T04:09:01.957Z,85.72
2023-05-21T04:10:04.080Z,85.42
2023-05-21T04:11:05.892Z,85.43
2023-05-21T04:12:08.067Z,85.12
2023-05-21T04:13:09.649Z,84.83
2023-05-21T04:14:11.386Z,85.37
2023-05-21T04:15:12.990Z,85.10
2023-05-21T04:16:19.182Z,85.08
2023-05-21T04:17:21.759Z,85.17
2023-05-21T04:18:26.074Z,85.74
2023-05-21T04:19:27.735Z,85.17
2023-05-21T04:20:29.449Z,84.39
2023-05-21T04:21:32.240Z,83.32
2023-05-21T04:22:33.810Z,82.70
2023-05-21T04:23:37.876Z,83.45
2023-05-21T04:24:39.513Z,83.87
2023-05-21T04:25:41.122Z,84.86
2023-05-21T04:26:43.326Z,84.68
2023-05-21T04:27:47.731Z,84.90
2023-05-21T04:28:50.511Z,84.70
2023-05-21T04:29:52.153Z,84.40
2023-05-21T04:30:53.762Z,84.73
2023-05-21T04:31:55.773Z,84.38
2023-05-21T04:32:58.126Z,84.52
2023-05-21T04:33:59.841Z,83.94
2023-05-21T04:35:02.056Z,82.33
2023-05-21T04:36:04.018Z,81.08
2023-05-21T04:37:05.582Z,81.28
2023-05-21T04:38:07.114Z,81.44
2023-05-21T04:39:08.700Z,82.05
2023-05-21T04:40:10.628Z,82.97
2023-05-21T04:41:14.330Z,83.84
2023-05-21T04:42:16.132Z,83.80
2023-05-21T04:43:18.132Z,83.85
2023-05-21T04:44:19.669Z,84.95
2023-05-21T04:45:24.755Z,84.56
2023-05-21T04:46:26.823Z,84.78
2023-05-21T04:47:35.702Z,84.16
2023-05-21T04:48:37.634Z,83.70
2023-05-21T04:49:39.225Z,84.32
2023-05-21T04:50:41.643Z,84.15
2023-05-21T04:51:43.307Z,84.18
2023-05-21T04:52:45.697Z,84.97
2023-05-21T04:53:48.098Z,84.74
2023-05-21T04:54:49.917Z,84.01
2023-05-21T04:55:51.574Z,84.53
2023-05-21T04:56:53.548Z,83.45
2023-05-21T04:57:55.151Z,83.42
2023-05-21T04:58:58.829Z,83.43
2023-05-21T05:00:00.574Z,83.61
2023-05-21T05:01:04.104Z,83.50
2023-05-21T05:02:05.952Z,83.23
2023-05-21T05:03:07.653Z,83.57
2023-05-21T05:04:09.790Z,83.38
2023-05-21T05:05:11.335Z,82.78
2023-05-21T05:06:12.973Z,83.22
2023-05-21T05:07:15.597Z,82.89
2023-05-21T05:08:17.178Z,82.92
2023-05-21T05:09:19.356Z,83.17
2023-05-21T05:10:20.968Z,82.78
2023-05-21T05:11:22.712Z,82.31
2023-05-21T05:12:24.270Z,82.30
2023-05-21T05:13:26.293Z,81.93
2023-05-21T05:14:27.861Z,82.18
2023-05-21T05:15:29.475Z,83.19
2023-05-21T05:16:31.218Z,84.28
2023-05-21T05:17:34.452Z,85.03
2023-05-21T05:18:36.553Z,85.65
2023-05-21T05:19:38.105Z,86.32
2023-05-21T05:20:39.928Z,87.67
2023-05-21T05:21:41.691Z,88.28
2023-05-21T05:22:43.252Z,87.88
2023-05-21T05:23:44.919Z,86.60
2023-05-21T05:24:46.545Z,85.88
2023-05-21T05:25:48.272Z,84.54
2023-05-21T05:26:50.086Z,83.89
2023-05-21T05:27:51.636Z,82.89
2023-05-21T05:28:53.246Z,82.82
2023-05-21T05:29:54.837Z,81.67
2023-05-21T05:33:16.974Z,81.57
2023-05-21T05:34:18.766Z,80.47
2023-05-21T05:35:20.488Z,80.44
2023-05-21T05:36:22.553Z,79.50
2023-05-21T05:55:51.198Z,67.04
2023-05-21T05:56:52.778Z,68.45
2023-05-21T05:57:54.409Z,68.55
2023-05-21T05:58:56.092Z,67.41
2023-05-21T05:59:57.889Z,64.28
2023-05-21T06:00:59.517Z,65.51
2023-05-21T06:02:01.521Z,64.19
2023-05-21T06:03:03.827Z,63.06
2023-05-21T06:04:05.548Z,63.74
2023-05-21T06:05:07.603Z,64.38
2023-05-21T06:06:09.336Z,64.46
2023-05-21T06:07:11.176Z,64.49
2023-05-21T06:08:12.772Z,64.56
2023-05-21T06:09:14.471Z,63.71
2023-05-21T06:10:16.078Z,63.24
2023-05-21T06:11:19.175Z,62.75
2023-05-21T06:12:21.179Z,61.54
2023-05-21T06:13:23.614Z,63.04
2023-05-21T06:14:25.294Z,62.97
2023-05-21T06:15:26.873Z,63.18
2023-05-21T06:16:31.555Z,63.40
2023-05-21T06:17:33.343Z,62.85
2023-05-21T06:18:34.972Z,62.12
2023-05-21T06:19:36.796Z,62.21
2023-05-21T06:20:38.427Z,60.33
2023-05-21T06:21:40.003Z,60.77
2023-05-21T06:22:41.584Z,62.74
2023-05-21T06:23:43.226Z,64.13
2023-05-21T06:24:45.101Z,63.69
2023-05-21T06:25:47.163Z,63.92
2023-05-21T06:26:48.751Z,64.92
2023-05-21T06:27:53.122Z,65.03
2023-05-21T06:28:54.703Z,64.07
2023-05-21T06:29:57.378Z,62.19
2023-05-21T06:30:59.045Z,62.43
2023-05-21T06:32:01.718Z,63.27
2023-05-21T06:33:03.514Z,62.99
2023-05-21T06:34:05.356Z,61.88
2023-05-21T06:35:07.575Z,62.48
2023-05-21T06:36:09.157Z,61.79
2023-05-21T06:37:16.446Z,60.99
2023-05-21T06:38:18.064Z,59.99
2023-05-21T06:39:19.683Z,59.51
2023-05-21T06:40:21.886Z,57.71
2023-05-21T06:41:23.544Z,57.58
2023-05-21T06:42:25.193Z,57.14
2023-05-21T06:43:28.773Z,57.51
2023-05-21T06:44:30.331Z,58.48
2023-05-21T06:45:32.014Z,57.68
2023-05-21T06:46:35.684Z,57.04
2023-05-21T06:47:37.466Z,58.07
2023-05-21T06:48:39.065Z,58.99
2023-05-21T06:49:40.708Z,57.15
2023-05-21T06:50:42.396Z,57.07
2023-05-21T06:51:44.048Z,56.11
2023-05-21T06:52:45.684Z,57.54
2023-05-21T06:53:48.045Z,56.43
2023-05-21T06:54:49.621Z,56.52
2023-05-21T06:55:53.840Z,56.22
2023-05-21T06:56:55.620Z,56.24
2023-05-21T06:57:57.931Z,55.96
2023-05-21T06:58:59.561Z,56.04
2023-05-21T07:00:01.692Z,53.91
2023-05-21T07:01:03.372Z,52.25
2023-05-21T07:02:05.217Z,53.00
2023-05-21T07:03:06.936Z,54.15
2023-05-21T07:04:09.514Z,53.98
2023-05-21T07:05:11.268Z,54.21
2023-05-21T07:06:12.825Z,53.67
2023-05-21T07:07:14.820Z,53.98
2023-05-21T07:08:16.856Z,54.64
2023-05-21T07:09:18.931Z,53.60
2023-05-21T07:10:20.650Z,54.52
2023-05-21T07:11:22.242Z,54.98
2023-05-21T07:12:23.793Z,55.86
2023-05-21T07:13:25.407Z,53.81
2023-05-21T07:14:26.972Z,54.89
2023-05-21T07:15:28.640Z,52.55
2023-05-21T07:16:30.397Z,53.51
2023-05-21T07:17:32.087Z,54.18
2023-05-21T07:18:33.773Z,55.86
2023-05-21T07:19:35.371Z,54.44
2023-05-21T07:20:36.906Z,53.54
2023-05-21T07:21:38.544Z,54.77
2023-05-21T07:22:40.164Z,54.58
2023-05-21T07:23:41.814Z,55.08
2023-05-21T07:24:43.479Z,52.39
2023-05-21T07:25:45.173Z,53.40
2023-05-21T07:26:46.831Z,53.72
2023-05-21T07:27:48.412Z,54.34
2023-05-21T07:28:50.125Z,52.79
2023-05-21T07:29:53.278Z,53.71
2023-05-21T07:30:55.089Z,52.92
2023-05-21T07:31:56.679Z,54.93
2023-05-21T07:32:58.369Z,52.01
2023-05-21T07:34:01.847Z,52.86
2023-05-21T07:35:03.865Z,52.25
2023-05-21T07:36:06.217Z,52.85
2023-05-21T07:37:07.804Z,54.05
2023-05-21T07:38:09.489Z,54.37
2023-05-21T07:39:11.150Z,53.50
2023-05-21T07:40:13.421Z,52.61
2023-05-21T07:41:17.096Z,52.78
2023-05-21T07:42:20.012Z,51.31
2023-05-21T07:43:21.633Z,54.28
2023-05-21T07:44:24.467Z,53.85
2023-05-21T07:45:26.085Z,53.61
2023-05-21T07:46:27.642Z,50.12
2023-05-21T07:47:29.340Z,51.64
2023-05-21T07:48:31.654Z,52.11
2023-05-21T07:49:34.586Z,50.68
2023-05-21T07:50:37.759Z,52.84
2023-05-21T07:51:39.428Z,49.88
2023-05-21T07:52:41.031Z,51.00
2023-05-21T07:53:42.690Z,50.23
2023-05-21T07:54:44.383Z,50.02
2023-05-21T07:55:47.950Z,48.59
2023-05-21T07:56:49.622Z,49.20
2023-05-21T07:57:52.425Z,50.84
2023-05-21T07:58:54.044Z,50.14
2023-05-21T07:59:56.638Z,51.45
2023-05-21T08:00:58.570Z,50.82
2023-05-21T08:02:00.238Z,48.45
2023-05-21T08:03:02.670Z,50.00
2023-05-21T08:04:06.790Z,50.59
2023-05-21T08:05:09.024Z,48.95
2023-05-21T08:06:10.845Z,47.16
2023-05-21T08:07:13.793Z,47.40
2023-05-21T08:08:17.402Z,48.38
2023-05-21T08:09:19.403Z,47.86
2023-05-21T08:10:21.208Z,49.64
2023-05-21T08:11:23.392Z,49.53
2023-05-21T08:12:25.410Z,48.55
2023-05-21T08:13:27.005Z,47.88
2023-05-21T08:14:28.606Z,50.01
2023-05-21T08:15:30.266Z,47.43
2023-05-21T08:16:31.947Z,45.87
2023-05-21T08:17:33.603Z,45.97
2023-05-21T08:18:35.202Z,46.60
2023-05-21T08:19:37.258Z,45.14
2023-05-21T08:20:38.897Z,45.74
2023-05-21T08:21:40.562Z,45.31
2023-05-21T08:22:43.772Z,43.89
2023-05-21T08:23:45.512Z,42.69
2023-05-21T08:24:48.347Z,44.04
2023-05-21T08:25:50.025Z,43.56
2023-05-21T08:26:51.769Z,44.05
2023-05-21T08:27:53.631Z,43.43
2023-05-21T08:28:55.218Z,44.90
2023-05-21T08:29:56.817Z,44.52
2023-05-21T08:30:58.590Z,45.51
2023-05-21T08:32:00.333Z,45.52
2023-05-21T08:33:02.528Z,46.35
2023-05-21T08:34:04.121Z,44.95
2023-05-21T08:35:06.287Z,46.44
2023-05-21T08:36:08.531Z,43.64
2023-05-21T08:37:10.164Z,44.40
2023-05-21T08:38:11.845Z,42.52
2023-05-21T08:39:13.437Z,42.21
2023-05-21T08:40:15.150Z,41.86
2023-05-21T08:41:18.434Z,42.23
2023-05-21T08:42:39.572Z,42.12
2023-05-21T08:43:41.340Z,42.78
2023-05-21T08:44:46.547Z,43.81
2023-05-21T08:45:54.938Z,43.32
2023-05-21T08:46:59.337Z,43.58
2023-05-21T08:48:01.016Z,43.18
2023-05-21T08:49:03.836Z,43.78
2023-05-21T08:50:09.565Z,40.76
2023-05-21T08:51:11.230Z,43.54
2023-05-21T08:52:13.685Z,43.41
2023-05-21T08:53:24.122Z,44.06
2023-05-21T08:54:33.059Z,43.01
2023-05-21T08:55:35.533Z,43.49
2023-05-21T08:56:40.808Z,44.42
2023-05-21T08:57:46.321Z,44.49
2023-05-21T08:58:49.171Z,44.54
2023-05-21T08:59:50.844Z,44.56
2023-05-21T09:00:52.465Z,43.46
2023-05-21T09:01:54.869Z,41.82
2023-05-21T09:03:01.346Z,41.82
2023-05-21T09:04:16.215Z,42.87
2023-05-21T09:05:22.694Z,44.80
2023-05-21T09:06:26.043Z,43.08
2023-05-21T09:07:29.222Z,44.42
2023-05-21T09:08:35.937Z,43.64
2023-05-21T09:09:49.449Z,44.34
2023-05-21T09:10:52.384Z,44.33
2023-05-21T09:11:54.154Z,43.44
2023-05-21T09:12:55.976Z,43.42
2023-05-21T09:14:00.204Z,42.33
2023-05-21T09:15:02.370Z,41.79
2023-05-21T09:16:05.902Z,42.25
2023-05-21T09:17:07.630Z,40.81
2023-05-21T09:18:09.339Z,40.40
2023-05-21T09:19:11.198Z,42.59
2023-05-21T09:20:17.335Z,43.44
2023-05-21T09:21:27.356Z,39.58
2023-05-21T09:22:28.966Z,38.99
2023-05-21T09:23:30.894Z,37.69
2023-05-21T09:24:35.788Z,38.53
2023-05-21T09:25:39.463Z,39.25
2023-05-21T09:26:43.653Z,38.76
2023-05-21T09:27:45.301Z,38.57
2023-05-21T09:28:47.439Z,38.76
2023-05-21T09:29:49.026Z,39.08
2023-05-21T09:30:54.194Z,36.92
2023-05-21T09:31:56.176Z,37.72
2023-05-21T09:32:59.964Z,37.12
2023-05-21T09:34:01.721Z,39.25
2023-05-21T09:35:14.501Z,38.87
2023-05-21T09:36:20.176Z,38.73
2023-05-21T09:38:28.130Z,38.43
2023-05-21T09:39:33.513Z,39.12
2023-05-21T09:40:35.670Z,40.28
2023-05-21T09:41:38.096Z,39.41
2023-05-21T09:42:40.976Z,40.18
2023-05-21T09:43:44.201Z,39.78
2023-05-21T09:44:45.846Z,40.13
2023-05-21T09:45:56.012Z,39.58
2023-05-21T09:46:59.609Z,40.44
2023-05-21T09:48:01.397Z,40.29
2023-05-21T09:49:03.104Z,40.91
2023-05-21T09:50:05.213Z,41.74
2023-05-21T09:51:13.787Z,41.30
2023-05-21T09:52:23.566Z,42.48
2023-05-21T09:53:25.153Z,42.67
2023-05-21T09:54:32.935Z,43.03
2023-05-21T09:55:36.457Z,42.89
2023-05-21T09:56:39.669Z,42.05
2023-05-21T09:57:46.477Z,41.96
2023-05-21T09:58:54.832Z,41.74
2023-05-21T09:59:56.613Z,41.17
2023-05-21T10:00:59.102Z,43.72
2023-05-21T10:02:00.826Z,44.01
2023-05-21T10:03:08.179Z,42.92
2023-05-21T10:04:10.553Z,41.86
2023-05-21T10:05:13.680Z,42.03
2023-05-21T10:06:16.622Z,43.22
2023-05-21T10:07:21.806Z,42.57
2023-05-21T10:08:27.361Z,42.10
2023-05-21T10:09:30.155Z,42.42
2023-05-21T10:10:32.524Z,42.44
2023-05-21T10:11:36.591Z,41.70
2023-05-21T10:12:41.370Z,41.86
2023-05-21T10:13:48.581Z,41.73
2023-05-21T10:15:01.509Z,41.69
2023-05-21T10:16:03.573Z,42.25
2023-05-21T10:17:07.361Z,41.40
2023-05-21T10:18:12.462Z,41.61
2023-05-21T10:19:16.159Z,42.35
2023-05-21T10:20:18.224Z,41.87
2023-05-21T10:21:22.842Z,41.83
2023-05-21T10:22:25.674Z,41.93
2023-05-21T10:23:29.053Z,41.55
2023-05-21T10:24:32.231Z,42.22
2023-05-21T10:25:34.916Z,41.52
2023-05-21T10:26:38.507Z,41.36
2023-05-21T10:27:41.324Z,41.70
2023-05-21T10:28:44.286Z,41.61
2023-05-21T10:29:46.408Z,41.71
2023-05-21T10:30:54.803Z,41.94
2023-05-21T10:31:57.045Z,41.95
2023-05-21T10:32:59.960Z,41.64
2023-05-21T10:34:06.605Z,43.40
2023-05-21T10:35:10.300Z,42.15
2023-05-21T10:36:12.427Z,42.63
2023-05-21T10:37:14.439Z,42.79
2023-05-21T10:38:19.264Z,43.21
2023-05-21T10:39:24.192Z,41.56
2023-05-21T10:40:25.894Z,42.14
2023-05-21T10:41:28.600Z,42.39
2023-05-21T10:42:33.107Z,42.54
2023-05-21T10:44:11.109Z,43.75
2023-05-21T10:45:40.694Z,43.96
2023-05-21T10:47:09.068Z,44.70
2023-05-21T10:48:16.375Z,43.15
2023-05-21T10:49:51.992Z,43.16
2023-05-21T10:51:22.623Z,42.48
2023-05-21T10:52:38.665Z,43.08
2023-05-21T10:53:55.402Z,42.46
2023-05-21T10:54:59.984Z,43.28
2023-05-21T10:56:22.128Z,44.28
2023-05-21T10:58:00.396Z,44.63
2023-05-21T10:59:12.832Z,43.56
2023-05-21T11:00:18.379Z,43.39
2023-05-21T11:01:20.907Z,43.76
2023-05-21T11:02:26.716Z,45.25
2023-05-21T11:03:30.740Z,45.02
2023-05-21T11:04:32.652Z,45.18
2023-05-21T11:05:55.239Z,45.79
2023-05-21T11:06:59.300Z,44.71
2023-05-21T11:08:02.444Z,45.22
2023-05-21T11:09:14.646Z,44.33
2023-05-21T11:10:41.490Z,44.88
2023-05-21T11:11:46.176Z,44.68
2023-05-21T11:13:07.112Z,45.53
2023-05-21T11:14:42.146Z,46.11
2023-05-21T11:15:58.731Z,44.53
2023-05-21T11:17:02.089Z,44.63
2023-05-21T11:18:03.930Z,45.72
2023-05-21T11:19:05.649Z,45.64
2023-05-21T11:20:16.760Z,45.84
2023-05-21T11:21:22.380Z,45.38
2023-05-21T11:22:27.649Z,45.86
2023-05-21T11:23:51.452Z,45.18
2023-05-21T11:24:55.083Z,46.70
2023-05-21T11:26:02.813Z,47.43
2023-05-21T11:27:05.679Z,45.94
2023-05-21T11:28:09.445Z,46.35
2023-05-21T11:29:11.435Z,47.29
2023-05-21T11:30:18.806Z,46.86
2023-05-21T11:31:27.688Z,46.16
2023-05-21T11:32:29.923Z,46.18
2023-05-21T11:33:33.457Z,46.04
2023-05-21T11:34:43.537Z,46.39
2023-05-21T11:35:45.037Z,46.68
2023-05-21T11:36:48.811Z,46.35
2023-05-21T11:37:53.899Z,46.44
2023-05-21T11:39:25.508Z,46.44
2023-05-21T11:40:28.285Z,45.16
2023-05-21T11:41:29.949Z,45.84
2023-05-21T11:42:33.718Z,46.43
2023-05-21T11:43:40.785Z,47.63
2023-05-21T11:44:49.890Z,45.66
2023-05-21T11:45:53.105Z,45.85
2023-05-21T11:46:55.171Z,45.84
2023-05-21T11:47:57.012Z,44.89
2023-05-21T11:48:59.215Z,45.80
2023-05-21T11:50:02.599Z,45.66
2023-05-21T11:51:04.636Z,45.08
2023-05-21T11:52:08.371Z,45.06
2023-05-21T11:53:12.573Z,43.34
2023-05-21T11:54:14.181Z,43.86
2023-05-21T11:55:16.031Z,43.45
2023-05-21T11:56:18.388Z,43.68
2023-05-21T11:57:20.135Z,44.22
2023-05-21T11:58:21.738Z,44.85
2023-05-21T11:59:23.382Z,43.55
2023-05-21T12:00:24.979Z,44.03
2023-05-21T12:01:26.685Z,45.03
2023-05-21T12:02:32.758Z,44.72
2023-05-21T12:03:35.569Z,46.93
2023-05-21T12:04:37.269Z,46.27
2023-05-21T12:05:48.853Z,46.70
2023-05-21T12:06:50.791Z,47.71
2023-05-21T12:07:52.571Z,47.87
2023-05-21T12:08:58.270Z,47.77
2023-05-21T12:10:00.452Z,46.63
2023-05-21T12:11:02.677Z,46.26
2023-05-21T12:12:06.189Z,46.97
2023-05-21T12:13:07.829Z,47.31
2023-05-21T12:14:12.556Z,46.23
2023-05-21T12:15:14.847Z,46.68
2023-05-21T12:16:16.640Z,47.19
2023-05-21T12:17:19.851Z,46.78
2023-05-21T12:18:22.256Z,45.22
2023-05-21T12:19:24.713Z,45.57
2023-05-21T12:20:28.285Z,46.21
2023-05-21T12:21:31.515Z,46.37
2023-05-21T12:22:33.892Z,46.75
2023-05-21T12:23:36.493Z,43.37
2023-05-21T12:24:39.177Z,46.12
2023-05-21T12:25:40.825Z,45.41
2023-05-21T12:26:44.562Z,44.53
2023-05-21T12:27:46.868Z,42.26
2023-05-21T12:28:49.069Z,43.38
2023-05-21T12:29:51.990Z,42.87
2023-05-21T12:30:53.697Z,42.71
2023-05-21T12:31:59.858Z,43.53
2023-05-21T12:33:02.321Z,45.08
2023-05-21T12:34:05.588Z,43.23
2023-05-21T12:35:07.798Z,42.90
2023-05-21T12:36:09.423Z,43.28
2023-05-21T12:37:33.938Z,42.51
2023-05-21T12:38:35.914Z,42.91
2023-05-21T12:39:39.177Z,44.19
2023-05-21T12:40:41.462Z,43.79
2023-05-21T12:41:43.992Z,44.15
2023-05-21T12:42:45.793Z,44.43
2023-05-21T12:43:47.799Z,43.94
2023-05-21T12:44:49.896Z,44.09
2023-05-21T12:45:51.735Z,43.90
2023-05-21T12:46:53.372Z,44.79
2023-05-21T12:47:56.576Z,44.94
2023-05-21T12:48:58.376Z,43.80
2023-05-21T12:50:02.038Z,44.01
2023-05-21T12:51:03.716Z,44.66
2023-05-21T12:52:12.515Z,43.78
2023-05-21T12:53:14.126Z,43.37
2023-05-21T12:54:15.742Z,43.50
2023-05-21T12:55:17.425Z,44.04
2023-05-21T12:56:19.064Z,43.63
2023-05-21T12:57:23.545Z,43.80
2023-05-21T12:58:25.101Z,43.34
2023-05-21T12:59:26.762Z,43.52
2023-05-21T13:00:28.635Z,43.19
2023-05-21T13:01:30.689Z,43.29
2023-05-21T13:02:34.149Z,43.30
2023-05-21T13:03:37.303Z,43.45
2023-05-21T13:04:38.886Z,43.17
2023-05-21T13:05:41.743Z,44.05
2023-05-21T13:06:44.183Z,44.61
2023-05-21T13:07:51.075Z,41.96
2023-05-21T13:08:52.683Z,42.21
2023-05-21T13:09:55.249Z,42.55
2023-05-21T13:10:56.889Z,44.50
2023-05-21T13:11:58.501Z,44.41
2023-05-21T13:13:00.362Z,42.88
2023-05-21T13:14:02.068Z,42.39
2023-05-21T13:15:05.931Z,44.55
2023-05-21T13:16:08.868Z,42.95
2023-05-21T13:17:11.122Z,41.92
2023-05-21T13:18:12.812Z,42.35
2023-05-21T13:19:15.392Z,43.65
2023-05-21T13:20:26.286Z,42.68
2023-05-21T13:21:27.992Z,42.17
2023-05-21T13:22:29.620Z,42.66
2023-05-21T13:23:31.229Z,43.27
2023-05-21T13:24:33.403Z,42.76
2023-05-21T13:25:35.085Z,42.46
2023-05-21T13:26:36.761Z,43.36
2023-05-21T13:27:39.880Z,43.23
2023-05-21T13:28:42.792Z,43.70
2023-05-21T13:29:44.533Z,43.26
2023-05-21T13:30:46.167Z,42.75
2023-05-21T13:31:48.089Z,44.71
2023-05-21T13:32:49.874Z,43.22
2023-05-21T13:33:51.609Z,43.79
2023-05-21T13:34:53.212Z,43.36
2023-05-21T13:35:54.806Z,42.85
2023-05-21T13:36:56.399Z,41.58
2023-05-21T13:37:57.959Z,41.85
2023-05-21T13:38:59.622Z,41.94
2023-05-21T13:40:01.235Z,42.53
2023-05-21T13:41:02.871Z,42.32
2023-05-21T13:42:05.830Z,42.51
2023-05-21T13:43:07.647Z,42.54
2023-05-21T13:44:09.244Z,42.63
2023-05-21T13:45:13.108Z,45.26
2023-05-21T13:46:14.798Z,41.60
2023-05-21T13:47:16.598Z,43.52
2023-05-21T13:48:18.213Z,42.79
2023-05-21T13:49:19.881Z,41.79
2023-05-21T13:50:21.478Z,43.75
2023-05-21T13:51:37.402Z,41.91
2023-05-21T13:52:40.147Z,42.34
2023-05-21T13:53:41.781Z,42.29
2023-05-21T13:54:43.778Z,42.91
2023-05-21T13:55:45.478Z,42.49
2023-05-21T13:56:47.162Z,42.52
2023-05-21T13:57:48.755Z,42.35
2023-05-21T13:58:50.389Z,42.80